Sagle, ID (83860)

12:05 AM PDT on August 30, 2014 (GMT -0700)
Sagle near Round Lake | Change Station
CLOSE
Current Station
Personal Weather Station
Location: Sagle, ID
Elevation: 2150 ft
Nearby Weather Stations

Elev 2150 ft 48.18 °N, 116.65 °W | Updated 4 minutes ago

Clear
Clear
52.9 °F
Feels Like 52.9 °F
N
0.0
Wind Variable Wind from West
Gusts 0.0 mph

Today
High -- | Low -- °F
--% Chance of Precip.
Yesterday
High -- | Low -- °F
Precip. -- in
6:01 AM 7:31 PM
Waxing Crescent, 19% visible
Pressure 29.79 in
Visibility 10.0 miles
Clouds Clear
Dew Point 48 °F
Humidity 83%
Rainfall 0.00 in
Snow Depth Not available.
UV 0 out of 12
Pollen 7.30 out of 12
Air Quality Not available.
Flu Activity Not available.
METAR KSZT 300655Z AUTO 28003KT 10SM CLR 14/08 A2979 RMK AO2

More Conditions Fewer Conditions

Pressure 29.79 in
Visibility 10.0 miles
Clouds Clear
Dew Point 48 °F
Humidity 83%
Rainfall 0.00 in
Snow Depth Not available.
UV 0 out of 12
Pollen 7.30 out of 12
Air Quality Not available.
Flu Activity Not available.
METAR KSZT 300655Z AUTO 28003KT 10SM CLR 14/08 A2979 RMK AO2

More Conditions Fewer Conditions

10-Day Weather Forecast

Almanac

Astronomy

Aug. 30, 2014 Rise Set
Actual Time 6:01 AM PDT 7:31 PM PDT
Civil Twilight 5:28 AM PDT 8:03 PM PDT
Nautical Twilight 4:49 AM PDT 8:43 PM PDT
Astronomical Twilight 4:06 AM PDT 9:25 PM PDT
Moon 11:18 AM PDT 9:42 PM PDT
Length of Visible Light 14h 34m
Length of Day
13h 29m
Tomorrow will be 3m 22s shorter.
Waxing Crescent, 19% of the Moon is Illuminated
Today
Waxing Crescent
Sep 2
First Quarter
Sep 8
Full
Sep 15
Last Quarter
Sep 24
New

Today's Extremes

State Highs State Lows

Community

WunderPhotos

Upload Photos

1,748,462 photos uploaded!

Nearby

Snow Depth

Station Depth Elevation
Schweitzer Basin 0 in 6090 ft
Mosquito Ridge 0 in 5200 ft
Bear Mountain 0 in 5400 ft
Myrtle Creek 0 in 3520 ft
Sunset 0 in 5540 ft

Earthquake Activity

City Distance Mag. Time & Date
No recent earthquake activity has been reported nearby.
Minimum magnitude displayed is 2.5.

Coastal Water Temperatures

Place Temperature
No Stations Reporting

Nearby Weather Stations